sensor_id;sensor_type;location;lat;lon;timestamp;P1;durP1;ratioP1;P2;durP2;ratioP2
71162;SDS011;58858;50.948;6.566;2023-08-24T00:08:04;10.73;;;2.63;;
71162;SDS011;58858;50.948;6.566;2023-08-24T00:18:05;8.43;;;2.92;;
71162;SDS011;58858;50.948;6.566;2023-08-24T00:28:07;8.55;;;2.40;;
71162;SDS011;58858;50.948;6.566;2023-08-24T00:38:08;5.00;;;2.05;;
71162;SDS011;58858;50.948;6.566;2023-08-24T00:48:09;7.80;;;2.53;;
71162;SDS011;58858;50.948;6.566;2023-08-24T00:58:10;3.70;;;2.58;;
71162;SDS011;58858;50.948;6.566;2023-08-24T01:08:11;10.70;;;2.50;;
71162;SDS011;58858;50.948;6.566;2023-08-24T01:18:13;8.68;;;3.38;;
71162;SDS011;58858;50.948;6.566;2023-08-24T01:28:15;7.53;;;2.30;;
71162;SDS011;58858;50.948;6.566;2023-08-24T01:38:17;5.43;;;2.80;;
71162;SDS011;58858;50.948;6.566;2023-08-24T01:48:18;8.52;;;2.65;;
71162;SDS011;58858;50.948;6.566;2023-08-24T01:58:20;11.45;;;2.38;;
71162;SDS011;58858;50.948;6.566;2023-08-24T02:08:21;13.20;;;2.83;;
71162;SDS011;58858;50.948;6.566;2023-08-24T02:18:22;8.25;;;2.75;;
71162;SDS011;58858;50.948;6.566;2023-08-24T02:28:23;6.75;;;3.55;;
71162;SDS011;58858;50.948;6.566;2023-08-24T02:38:24;5.80;;;2.40;;
71162;SDS011;58858;50.948;6.566;2023-08-24T02:48:26;6.60;;;2.33;;
71162;SDS011;58858;50.948;6.566;2023-08-24T02:58:27;6.40;;;2.88;;
71162;SDS011;58858;50.948;6.566;2023-08-24T03:08:29;9.77;;;2.63;;
71162;SDS011;58858;50.948;6.566;2023-08-24T03:18:31;3.53;;;2.38;;
71162;SDS011;58858;50.948;6.566;2023-08-24T03:28:32;9.15;;;3.08;;
71162;SDS011;58858;50.948;6.566;2023-08-24T03:38:34;7.70;;;3.58;;
71162;SDS011;58858;50.948;6.566;2023-08-24T03:48:35;4.68;;;3.00;;
71162;SDS011;58858;50.948;6.566;2023-08-24T03:58:36;10.35;;;3.03;;
71162;SDS011;58858;50.948;6.566;2023-08-24T04:08:38;9.85;;;3.60;;
71162;SDS011;58858;50.948;6.566;2023-08-24T04:18:39;8.48;;;3.15;;
71162;SDS011;58858;50.948;6.566;2023-08-24T04:28:41;7.65;;;3.20;;
71162;SDS011;58858;50.948;6.566;2023-08-24T04:38:42;8.50;;;4.68;;
71162;SDS011;58858;50.948;6.566;2023-08-24T04:59:01;11.70;;;3.40;;
71162;SDS011;58858;50.948;6.566;2023-08-24T05:09:04;5.78;;;3.17;;
71162;SDS011;58858;50.948;6.566;2023-08-24T05:19:05;6.13;;;3.30;;
71162;SDS011;58858;50.948;6.566;2023-08-24T05:29:06;13.30;;;3.83;;
71162;SDS011;58858;50.948;6.566;2023-08-24T05:39:07;8.52;;;3.47;;
71162;SDS011;58858;50.948;6.566;2023-08-24T05:49:09;5.13;;;3.40;;
71162;SDS011;58858;50.948;6.566;2023-08-24T05:59:10;10.18;;;4.78;;
71162;SDS011;58858;50.948;6.566;2023-08-24T06:09:11;8.07;;;3.90;;
71162;SDS011;58858;50.948;6.566;2023-08-24T06:19:12;7.25;;;3.45;;
71162;SDS011;58858;50.948;6.566;2023-08-24T06:29:13;9.40;;;3.47;;
71162;SDS011;58858;50.948;6.566;2023-08-24T06:39:14;9.60;;;3.42;;
71162;SDS011;58858;50.948;6.566;2023-08-24T06:49:15;8.95;;;4.05;;
71162;SDS011;58858;50.948;6.566;2023-08-24T06:59:17;4.85;;;2.83;;
71162;SDS011;58858;50.948;6.566;2023-08-24T07:09:18;7.95;;;2.78;;
71162;SDS011;58858;50.948;6.566;2023-08-24T07:19:19;9.15;;;3.63;;
71162;SDS011;58858;50.948;6.566;2023-08-24T07:29:22;8.95;;;3.00;;
71162;SDS011;58858;50.948;6.566;2023-08-24T07:39:23;7.93;;;3.35;;
71162;SDS011;58858;50.948;6.566;2023-08-24T07:49:25;4.82;;;2.78;;
71162;SDS011;58858;50.948;6.566;2023-08-24T07:59:26;9.57;;;3.28;;
71162;SDS011;58858;50.948;6.566;2023-08-24T08:09:27;3.83;;;2.25;;
71162;SDS011;58858;50.948;6.566;2023-08-24T08:19:28;4.18;;;2.45;;
71162;SDS011;58858;50.948;6.566;2023-08-24T08:29:30;5.57;;;2.78;;
71162;SDS011;58858;50.948;6.566;2023-08-24T08:39:32;6.60;;;2.70;;
71162;SDS011;58858;50.948;6.566;2023-08-24T08:49:33;5.03;;;2.80;;
71162;SDS011;58858;50.948;6.566;2023-08-24T08:59:36;11.77;;;2.70;;
71162;SDS011;58858;50.948;6.566;2023-08-24T09:09:37;4.70;;;2.42;;
71162;SDS011;58858;50.948;6.566;2023-08-24T09:19:39;7.10;;;2.95;;
71162;SDS011;58858;50.948;6.566;2023-08-24T09:29:40;3.00;;;2.13;;
71162;SDS011;58858;50.948;6.566;2023-08-24T09:39:41;3.67;;;2.30;;
71162;SDS011;58858;50.948;6.566;2023-08-24T09:49:43;6.20;;;2.47;;
71162;SDS011;58858;50.948;6.566;2023-08-24T09:59:44;6.15;;;2.30;;
71162;SDS011;58858;50.948;6.566;2023-08-24T10:09:56;8.77;;;2.55;;
71162;SDS011;58858;50.948;6.566;2023-08-24T10:19:59;3.53;;;1.97;;
71162;SDS011;58858;50.948;6.566;2023-08-24T10:30:10;9.57;;;2.88;;
71162;SDS011;58858;50.948;6.566;2023-08-24T10:40:12;10.87;;;2.53;;
71162;SDS011;58858;50.948;6.566;2023-08-24T10:50:14;7.15;;;2.58;;
71162;SDS011;58858;50.948;6.566;2023-08-24T11:00:15;4.22;;;2.80;;
71162;SDS011;58858;50.948;6.566;2023-08-24T11:10:24;7.95;;;2.22;;
71162;SDS011;58858;50.948;6.566;2023-08-24T11:20:26;3.75;;;2.17;;
71162;SDS011;58858;50.948;6.566;2023-08-24T11:30:27;8.05;;;2.78;;
71162;SDS011;58858;50.948;6.566;2023-08-24T11:40:28;8.70;;;2.83;;
71162;SDS011;58858;50.948;6.566;2023-08-24T11:50:30;5.10;;;2.58;;
71162;SDS011;58858;50.948;6.566;2023-08-24T12:00:33;12.55;;;3.55;;
71162;SDS011;58858;50.948;6.566;2023-08-24T12:10:34;11.05;;;2.95;;
71162;SDS011;58858;50.948;6.566;2023-08-24T12:20:36;11.30;;;3.58;;
71162;SDS011;58858;50.948;6.566;2023-08-24T12:30:47;8.13;;;3.45;;
71162;SDS011;58858;50.948;6.566;2023-08-24T12:40:49;8.63;;;4.25;;
71162;SDS011;58858;50.948;6.566;2023-08-24T12:51:01;5.88;;;3.40;;
71162;SDS011;58858;50.948;6.566;2023-08-24T13:01:03;4.88;;;3.00;;
71162;SDS011;58858;50.948;6.566;2023-08-24T13:11:04;7.28;;;2.47;;
71162;SDS011;58858;50.948;6.566;2023-08-24T13:21:05;4.43;;;2.38;;
71162;SDS011;58858;50.948;6.566;2023-08-24T13:31:06;5.00;;;1.95;;
71162;SDS011;58858;50.948;6.566;2023-08-24T13:41:08;7.90;;;3.08;;
71162;SDS011;58858;50.948;6.566;2023-08-24T13:51:10;6.53;;;2.38;;
71162;SDS011;58858;50.948;6.566;2023-08-24T14:01:12;4.28;;;2.25;;
71162;SDS011;58858;50.948;6.566;2023-08-24T14:11:13;6.25;;;2.10;;
71162;SDS011;58858;50.948;6.566;2023-08-24T14:21:16;7.05;;;2.05;;
71162;SDS011;58858;50.948;6.566;2023-08-24T14:31:18;6.55;;;2.10;;
71162;SDS011;58858;50.948;6.566;2023-08-24T14:41:19;10.68;;;2.78;;
71162;SDS011;58858;50.948;6.566;2023-08-24T14:51:20;5.53;;;2.33;;
71162;SDS011;58858;50.948;6.566;2023-08-24T15:01:21;8.98;;;2.13;;
71162;SDS011;58858;50.948;6.566;2023-08-24T15:11:22;9.38;;;2.20;;
71162;SDS011;58858;50.948;6.566;2023-08-24T15:21:25;4.13;;;1.90;;
71162;SDS011;58858;50.948;6.566;2023-08-24T15:31:26;4.43;;;1.80;;
71162;SDS011;58858;50.948;6.566;2023-08-24T15:41:27;8.40;;;1.40;;
71162;SDS011;58858;50.948;6.566;2023-08-24T15:51:28;2.58;;;0.88;;
71162;SDS011;58858;50.948;6.566;2023-08-24T16:01:29;5.00;;;1.23;;
71162;SDS011;58858;50.948;6.566;2023-08-24T16:11:30;7.68;;;2.05;;
71162;SDS011;58858;50.948;6.566;2023-08-24T16:21:32;2.60;;;1.65;;
71162;SDS011;58858;50.948;6.566;2023-08-24T16:31:34;4.15;;;1.77;;
71162;SDS011;58858;50.948;6.566;2023-08-24T16:41:39;2.28;;;0.82;;
71162;SDS011;58858;50.948;6.566;2023-08-24T16:51:40;2.30;;;1.52;;
71162;SDS011;58858;50.948;6.566;2023-08-24T17:01:41;1.20;;;0.77;;
71162;SDS011;58858;50.948;6.566;2023-08-24T17:11:43;6.07;;;1.23;;
71162;SDS011;58858;50.948;6.566;2023-08-24T17:21:44;3.80;;;0.77;;
71162;SDS011;58858;50.948;6.566;2023-08-24T17:31:45;3.00;;;1.23;;
71162;SDS011;58858;50.948;6.566;2023-08-24T17:41:47;2.03;;;1.00;;
71162;SDS011;58858;50.948;6.566;2023-08-24T17:51:48;4.88;;;1.17;;
71162;SDS011;58858;50.948;6.566;2023-08-24T18:01:49;3.70;;;1.00;;
71162;SDS011;58858;50.948;6.566;2023-08-24T18:11:50;4.13;;;1.42;;
71162;SDS011;58858;50.948;6.566;2023-08-24T18:21:51;1.73;;;1.08;;
71162;SDS011;58858;50.948;6.566;2023-08-24T18:31:52;2.20;;;1.17;;
71162;SDS011;58858;50.948;6.566;2023-08-24T18:52:11;2.60;;;0.95;;
71162;SDS011;58858;50.948;6.566;2023-08-24T19:02:13;3.35;;;1.38;;
71162;SDS011;58858;50.948;6.566;2023-08-24T19:22:20;5.53;;;2.45;;
71162;SDS011;58858;50.948;6.566;2023-08-24T19:32:21;3.63;;;1.45;;
71162;SDS011;58858;50.948;6.566;2023-08-24T19:42:22;2.20;;;1.30;;
71162;SDS011;58858;50.948;6.566;2023-08-24T19:52:25;4.07;;;1.30;;
71162;SDS011;58858;50.948;6.566;2023-08-24T20:02:34;3.60;;;1.45;;
71162;SDS011;58858;50.948;6.566;2023-08-24T20:13:55;2.97;;;1.50;;
71162;SDS011;58858;50.948;6.566;2023-08-24T20:46:58;4.10;;;1.98;;
71162;SDS011;58858;50.948;6.566;2023-08-24T20:56:59;3.83;;;2.00;;
71162;SDS011;58858;50.948;6.566;2023-08-24T21:07:01;5.68;;;1.70;;
71162;SDS011;58858;50.948;6.566;2023-08-24T22:30:12;6.20;;;1.67;;
71162;SDS011;58858;50.948;6.566;2023-08-24T22:40:19;3.28;;;1.55;;
71162;SDS011;58858;50.948;6.566;2023-08-24T22:50:21;3.72;;;1.90;;
71162;SDS011;58858;50.948;6.566;2023-08-24T23:00:22;15.02;;;2.88;;
71162;SDS011;58858;50.948;6.566;2023-08-24T23:10:23;4.60;;;2.45;;
71162;SDS011;58858;50.948;6.566;2023-08-24T23:20:24;6.28;;;2.45;;
71162;SDS011;58858;50.948;6.566;2023-08-24T23:30:26;4.00;;;2.20;;
71162;SDS011;58858;50.948;6.566;2023-08-24T23:40:28;5.57;;;1.73;;
71162;SDS011;58858;50.948;6.566;2023-08-24T23:50:31;8.02;;;2.80;;
